< < Back
Terminal Aerodrome Forecast


Current Version              Previous Versions:   1  2  3  4  5  6  7  8  9  

Terminal Aerodrome Forecast

611
FTUS44 KMOB 221700
TAFPNS
TAF
KPNS 221726Z 2218/2318 03007KT P6SM SCT035
     FM222000 24007KT P6SM VCTS BKN040CB BKN250
     FM230100 25003KT P6SM FEW040 SCT250=



Latest METAR

201
SAUS70 KWBC 230500 RRE
MTRPNS
METAR KPNS 230453Z AUTO 29008KT 10SM CLR 28/24 A3001 RMK AO2 SLP163
T02780239


USA.gov is the U.S. government's official web portal to all federal, state and local government web resources and services.